Time;durP1;ratioP1;P1;durP2;ratioP2;P2;SDS_P1;SDS_P2;PMS_P1;PMS_P2;Temp;Humidity;BMP_temperature;BMP_pressure;BME280_temperature;BME280_humidity;BME280_pressure;Samples;Min_cycle;Max_cycle;Signal;HPM_P1;HPM_P2
2022/01/21 00:02:26;;;;;;;11.05;6.78;;;;;;;1.75;73.82;99679.48;1799349;79;21245;-63
2022/01/21 00:05:32;;;;;;;14.55;6.97;;;;;;;1.75;74.00;99664.64;1799593;79;21221;-61
2022/01/21 00:08:42;;;;;;;16.87;7.75;;;;;;;1.77;74.19;99662.18;1799558;79;21248;-61
2022/01/21 00:11:48;;;;;;;14.50;7.58;;;;;;;1.78;74.26;99658.97;1799447;79;21363;-62
2022/01/21 00:14:55;;;;;;;12.47;7.50;;;;;;;1.80;74.42;99659.69;1800369;79;21852;-61
2022/01/21 00:18:03;;;;;;;15.72;8.43;;;;;;;1.80;74.44;99658.34;1798962;79;21288;-61
2022/01/21 00:31:27;;;;;;;13.78;7.95;;;;;;;1.76;75.16;99633.48;1799332;79;21351;-62
2022/01/21 00:34:37;;;;;;;12.53;7.80;;;;;;;1.79;75.27;99628.31;1799522;79;21752;-63
2022/01/21 00:37:46;;;;;;;14.98;9.03;;;;;;;1.80;75.43;99625.97;1799862;79;21344;-64
2022/01/21 00:40:45;;;;;;;17.25;8.63;;;;;;;1.80;75.49;99621.44;1800292;79;21371;-63
2022/01/21 00:43:58;;;;;;;14.60;7.97;;;;;;;1.79;75.50;99618.88;1798672;78;21852;-63
2022/01/21 00:47:05;;;;;;;14.63;9.08;;;;;;;1.77;75.59;99618.16;1798995;80;21256;-63
2022/01/21 00:50:11;;;;;;;17.70;9.40;;;;;;;1.73;75.73;99612.17;1798838;80;21448;-63
2022/01/21 00:53:19;;;;;;;15.23;9.28;;;;;;;1.77;75.94;99612.27;1782019;80;21201;-63
2022/01/21 00:56:27;;;;;;;14.68;8.78;;;;;;;1.83;76.01;99614.41;1798922;80;21324;-63
2022/01/21 00:59:32;;;;;;;16.77;10.05;;;;;;;1.88;76.00;99603.19;1799129;79;21382;-63
2022/01/21 01:02:40;;;;;;;15.70;9.80;;;;;;;1.86;75.96;99598.42;1798995;79;21394;-62
2022/01/21 01:05:51;;;;;;;17.42;9.78;;;;;;;1.85;76.04;99603.47;1798885;80;21194;-64
2022/01/21 01:08:58;;;;;;;16.48;9.83;;;;;;;1.82;76.04;99600.58;1798865;80;21347;-62
2022/01/21 01:22:07;;;;;;;15.15;9.70;;;;;;;1.87;76.44;99598.80;1798874;79;21173;-62
2022/01/21 01:28:39;;;;;;;19.40;11.20;;;;;;;1.90;76.46;99587.72;1799135;79;21367;-61
2022/01/21 01:31:47;;;;;;;19.05;11.50;;;;;;;1.91;76.50;99589.41;1798938;80;21205;-62
2022/01/21 01:34:54;;;;;;;21.73;12.78;;;;;;;1.91;76.40;99575.92;1799034;79;21410;-63
2022/01/21 01:38:25;;;;;;;28.25;12.93;;;;;;;1.88;76.37;99583.81;1798944;79;21185;-62
2022/01/21 01:41:19;;;;;;;20.45;12.07;;;;;;;1.86;76.43;99584.45;1798811;79;21351;-61
2022/01/21 01:51:15;;;;;;;21.07;12.88;;;;;;;1.90;76.55;99562.09;1798684;79;21348;-61
2022/01/21 01:54:22;;;;;;;19.42;13.00;;;;;;;1.92;76.61;99557.41;1798949;79;21319;-62
2022/01/21 01:57:30;;;;;;;21.48;13.70;;;;;;;1.92;76.51;99553.36;1799003;79;21177;-63
2022/01/21 02:00:36;;;;;;;20.27;12.80;;;;;;;1.88;76.53;99560.88;1799402;79;21343;-63
2022/01/21 02:03:44;;;;;;;20.37;12.63;;;;;;;1.89;76.67;99547.73;1798856;79;21350;-62
2022/01/21 02:06:50;;;;;;;23.70;13.45;;;;;;;1.87;76.63;99544.84;1799475;79;21174;-62
2022/01/21 02:09:56;;;;;;;21.35;12.65;;;;;;;1.84;76.67;99543.77;1799098;79;21900;-63
2022/01/21 02:13:05;;;;;;;20.88;14.07;;;;;;;1.85;76.88;99540.06;1799211;79;21359;-63
2022/01/21 02:22:52;;;;;;;22.73;14.33;;;;;;;1.88;77.23;99533.04;1779402;79;21333;-62
2022/01/21 02:26:08;;;;;;;23.38;13.95;;;;;;;1.92;77.19;99532.61;1799029;78;21174;-64
2022/01/21 02:29:25;;;;;;;25.68;14.25;;;;;;;1.94;77.16;99540.56;1798917;79;21311;-63
2022/01/21 02:32:24;;;;;;;22.02;13.93;;;;;;;1.92;77.25;99542.05;1799481;79;21339;-63
2022/01/21 02:35:31;;;;;;;22.45;15.05;;;;;;;1.91;77.33;99544.89;1798930;79;21263;-63
2022/01/21 02:38:39;;;;;;;22.45;15.70;;;;;;;1.88;77.43;99539.30;1799444;79;21232;-63
2022/01/21 02:41:46;;;;;;;27.05;15.32;;;;;;;1.88;77.58;99539.78;1786450;79;21462;-64
2022/01/21 02:44:53;;;;;;;22.52;15.03;;;;;;;1.87;77.70;99537.58;1778750;79;21217;-62
2022/01/21 02:47:59;;;;;;;23.18;14.70;;;;;;;1.84;77.69;99548.66;1744131;81;21454;-63
2022/01/21 02:51:07;;;;;;;29.10;15.48;;;;;;;1.81;77.89;99546.76;1741411;82;21208;-62
2022/01/21 02:54:16;;;;;;;25.35;15.88;;;;;;;1.81;78.07;99549.45;1758102;81;21214;-63
2022/01/21 02:57:24;;;;;;;20.02;13.53;;;;;;;1.80;78.24;99539.64;1761963;81;21182;-63
2022/01/21 03:00:32;;;;;;;22.42;15.68;;;;;;;1.80;78.39;99545.03;1761868;81;21388;-62
2022/01/21 03:03:43;;;;;;;21.90;14.50;;;;;;;1.77;78.52;99535.87;1762058;81;21742;-62
2022/01/21 03:06:48;;;;;;;22.70;14.95;;;;;;;1.76;78.72;99525.57;1761499;81;21427;-63
2022/01/21 03:09:55;;;;;;;20.82;14.58;;;;;;;1.77;78.86;99531.83;1762208;81;21471;-62
2022/01/21 03:13:03;;;;;;;21.23;14.80;;;;;;;1.76;79.00;99533.66;1762041;81;21230;-62
2022/01/21 03:16:09;;;;;;;27.52;16.32;;;;;;;1.75;79.16;99537.86;1761691;81;21380;-63
2022/01/21 03:19:15;;;;;;;26.02;16.82;;;;;;;1.73;79.24;99538.52;1762088;81;21368;-63
2022/01/21 03:22:22;;;;;;;22.62;14.58;;;;;;;1.69;79.39;99533.89;1762259;81;21673;-61
2022/01/21 03:25:29;;;;;;;22.48;13.93;;;;;;;1.67;79.58;99539.05;1760887;81;21649;-62
2022/01/21 03:28:36;;;;;;;25.05;16.23;;;;;;;1.65;79.73;99535.14;1761925;81;21379;-62
2022/01/21 03:31:45;;;;;;;27.67;16.82;;;;;;;1.62;79.96;99540.00;1761620;81;21218;-62
2022/01/21 03:34:54;;;;;;;26.33;17.45;;;;;;;1.60;80.15;99540.62;1762924;80;21273;-63
2022/01/21 03:38:03;;;;;;;26.07;17.10;;;;;;;1.54;80.40;99540.67;1762220;81;21347;-61
2022/01/21 03:41:13;;;;;;;27.82;17.77;;;;;;;1.50;80.69;99529.34;1762280;81;21236;-62
2022/01/21 03:44:21;;;;;;;26.27;17.45;;;;;;;1.48;80.88;99531.31;1762049;81;21264;-61
2022/01/21 03:47:27;;;;;;;27.58;18.02;;;;;;;1.45;81.17;99536.13;1774390;80;21362;-62
2022/01/21 03:50:36;;;;;;;27.48;18.57;;;;;;;1.44;81.35;99536.61;1812961;78;21422;-62
2022/01/21 03:53:47;;;;;;;27.75;19.30;;;;;;;1.41;81.53;99537.41;1761107;81;21232;-62
2022/01/21 03:56:51;;;;;;;29.30;18.70;;;;;;;1.35;81.66;99535.24;1766726;81;21198;-62
2022/01/21 03:59:59;;;;;;;29.72;19.92;;;;;;;1.34;81.76;99538.94;1760766;81;21888;-62
2022/01/21 04:03:05;;;;;;;29.27;19.52;;;;;;;1.32;81.90;99546.30;1766389;81;21414;-61
2022/01/21 04:06:15;;;;;;;28.92;19.25;;;;;;;1.30;81.96;99545.09;1765836;81;21382;-62
2022/01/21 04:09:21;;;;;;;31.85;21.20;;;;;;;1.28;81.92;99540.36;1811947;78;21217;-63
2022/01/21 04:12:27;;;;;;;30.65;19.73;;;;;;;1.25;81.88;99558.13;1761447;81;21336;-62
2022/01/21 04:15:34;;;;;;;27.30;18.15;;;;;;;1.23;81.71;99550.70;1766193;81;21345;-62
2022/01/21 04:18:43;;;;;;;28.30;18.70;;;;;;;1.26;81.63;99561.69;1760824;81;21221;-62
2022/01/21 04:21:49;;;;;;;27.75;18.20;;;;;;;1.27;81.33;99550.77;1766628;81;21442;-61
2022/01/21 04:24:55;;;;;;;26.77;17.55;;;;;;;1.28;81.08;99536.80;1760810;81;21359;-63
2022/01/21 04:28:18;;;;;;;29.02;17.67;;;;;;;1.30;80.71;99546.96;1766791;81;21363;-61
2022/01/21 04:31:25;;;;;;;27.77;15.78;;;;;;;1.29;80.40;99554.67;1760896;81;21383;-62
2022/01/21 04:34:34;;;;;;;24.27;15.85;;;;;;;1.25;79.98;99546.00;1766740;81;21822;-62
2022/01/21 04:37:49;;;;;;;25.45;16.67;;;;;;;1.26;79.83;99555.81;1760826;81;21259;-62
2022/01/21 04:41:02;;;;;;;26.37;17.30;;;;;;;1.26;79.61;99557.64;1766562;81;21335;-63
2022/01/21 04:47:28;;;;;;;27.37;17.27;;;;;;;1.24;79.18;99572.61;1766165;81;21331;-62
2022/01/21 04:50:53;;;;;;;30.27;18.70;;;;;;;1.23;79.10;99574.09;1699363;83;21422;-61
2022/01/21 04:53:49;;;;;;;34.38;19.80;;;;;;;1.21;79.06;99590.41;1734553;82;21370;-63
2022/01/21 04:56:59;;;;;;;32.67;19.73;;;;;;;1.19;79.05;99574.02;1793672;80;21808;-62
2022/01/21 05:00:04;;;;;;;29.23;19.42;;;;;;;1.19;79.12;99584.29;1793462;80;21744;-64
2022/01/21 05:03:17;;;;;;;29.90;17.40;;;;;;;1.15;78.99;99586.91;1793110;80;21216;-61
2022/01/21 05:06:27;;;;;;;16.10;10.08;;;;;;;1.10;78.75;99603.98;1793410;80;21334;-62
2022/01/21 05:09:35;;;;;;;14.10;8.80;;;;;;;0.99;76.85;99590.59;1793248;80;21238;-63
2022/01/21 05:12:39;;;;;;;13.08;8.38;;;;;;;0.85;75.05;99607.13;1792950;80;21381;-63
2022/01/21 05:16:06;;;;;;;13.08;7.87;;;;;;;0.70;73.81;99592.28;1792667;80;21195;-63
2022/01/21 05:19:16;;;;;;;14.07;8.15;;;;;;;0.60;72.64;99594.57;1792964;80;21231;-64
2022/01/21 05:22:34;;;;;;;14.35;8.38;;;;;;;0.47;71.80;99589.87;1791497;80;21192;-63
2022/01/21 05:25:39;;;;;;;14.95;8.10;;;;;;;0.37;71.51;99591.16;1793363;80;21176;-63
2022/01/21 05:28:44;;;;;;;14.18;6.60;;;;;;;0.31;71.23;99604.28;1781940;80;21331;-63
2022/01/21 05:32:11;;;;;;;14.40;7.22;;;;;;;0.27;70.86;99609.06;1784963;78;21339;-64
2022/01/21 05:35:28;;;;;;;10.93;6.05;;;;;;;0.27;70.64;99620.34;1755188;81;21719;-62
2022/01/21 05:38:41;;;;;;;15.58;8.53;;;;;;;0.26;70.54;99615.44;1691574;83;21259;-63
2022/01/21 05:42:03;;;;;;;11.60;7.37;;;;;;;0.27;70.52;99629.24;1790554;80;21196;-63
2022/01/21 05:48:54;;;;;;;16.52;8.50;;;;;;;0.36;70.59;99637.91;1732857;80;21201;-64
2022/01/21 05:52:16;;;;;;;14.85;9.25;;;;;;;0.39;70.58;99641.68;1764386;80;21317;-64
2022/01/21 05:55:19;;;;;;;9.30;5.85;;;;;;;0.43;70.58;99648.50;1768551;79;21554;-63
2022/01/21 05:58:26;;;;;;;12.80;6.58;;;;;;;0.46;70.09;99641.50;1776274;80;21293;-63
2022/01/21 06:01:36;;;;;;;8.93;5.53;;;;;;;0.45;69.62;99641.64;1771160;80;21236;-65
2022/01/21 06:04:44;;;;;;;13.13;6.60;;;;;;;0.40;69.41;99632.61;1791791;80;21247;-63
2022/01/21 06:07:49;;;;;;;12.35;6.17;;;;;;;0.42;69.17;99638.73;1771791;80;21331;-63
2022/01/21 06:10:56;;;;;;;11.45;7.00;;;;;;;0.40;69.01;99637.99;1767262;79;21363;-63
2022/01/21 06:14:02;;;;;;;11.08;6.70;;;;;;;0.41;69.00;99653.18;1794512;79;21242;-63
2022/01/21 06:17:07;;;;;;;11.97;7.28;;;;;;;0.45;68.82;99657.78;1763402;80;21177;-63
2022/01/21 06:20:13;;;;;;;14.68;7.67;;;;;;;0.49;68.49;99668.67;1758089;80;21207;-62
2022/01/21 06:23:20;;;;;;;12.93;6.95;;;;;;;0.51;68.39;99663.51;1707958;83;21261;-63
2022/01/21 06:26:26;;;;;;;14.58;8.08;;;;;;;0.54;68.15;99666.45;1692864;84;21439;-64
2022/01/21 06:29:31;;;;;;;15.95;7.28;;;;;;;0.58;68.07;99663.84;1722400;83;21318;-64
2022/01/21 06:32:37;;;;;;;18.80;7.87;;;;;;;0.61;67.94;99668.97;1722974;83;21726;-63
2022/01/21 06:35:43;;;;;;;12.63;6.12;;;;;;;0.65;67.86;99675.81;1702923;84;21236;-64
2022/01/21 06:38:50;;;;;;;16.52;8.00;;;;;;;0.65;67.71;99687.42;1760313;81;21743;-64
2022/01/21 06:41:55;;;;;;;15.20;7.60;;;;;;;0.66;67.45;99686.94;1772764;80;21359;-63
2022/01/21 06:45:06;;;;;;;13.90;6.20;;;;;;;0.68;67.11;99692.54;1734958;82;21718;-62
2022/01/21 06:48:13;;;;;;;16.17;7.37;;;;;;;0.71;66.80;99688.27;1789218;80;21185;-62
2022/01/21 06:51:21;;;;;;;15.32;7.05;;;;;;;0.75;66.60;99689.70;1742719;80;21750;-62
2022/01/21 06:54:29;;;;;;;12.60;6.53;;;;;;;0.83;66.38;99692.59;1798067;80;21291;-63
2022/01/21 06:57:42;;;;;;;18.45;9.48;;;;;;;0.89;65.93;99685.32;1804432;78;21331;-63
2022/01/21 07:00:52;;;;;;;19.92;9.80;;;;;;;0.93;65.68;99698.91;1798638;79;21259;-63
2022/01/21 07:03:58;;;;;;;13.60;7.35;;;;;;;0.93;65.26;99694.00;1802749;78;21193;-62
2022/01/21 07:07:04;;;;;;;20.75;8.53;;;;;;;0.89;64.94;99690.71;1734495;82;21209;-63
2022/01/21 07:10:13;;;;;;;11.68;5.80;;;;;;;0.84;64.83;99691.59;1734134;81;21555;-63
2022/01/21 07:13:18;;;;;;;11.88;5.30;;;;;;;0.85;64.73;99706.79;1732389;82;21762;-62
2022/01/21 07:16:24;;;;;;;9.10;5.33;;;;;;;0.86;64.42;99710.31;1732268;82;21198;-62
2022/01/21 07:19:30;;;;;;;9.93;5.05;;;;;;;0.87;64.24;99708.00;1732515;81;21241;-64
2022/01/21 07:22:35;;;;;;;9.90;5.17;;;;;;;0.94;64.11;99714.55;1737188;81;21201;-62
2022/01/21 07:25:43;;;;;;;9.38;5.45;;;;;;;1.00;63.73;99719.45;1797106;80;21188;-63
2022/01/21 07:28:50;;;;;;;9.95;5.25;;;;;;;1.08;63.62;99715.08;1757207;81;21442;-63
2022/01/21 07:31:58;;;;;;;9.00;5.28;;;;;;;1.17;63.30;99716.14;1823790;78;21379;-63
2022/01/21 07:35:08;;;;;;;12.07;5.75;;;;;;;1.13;63.16;99710.64;1804487;78;21409;-63
2022/01/21 07:38:19;;;;;;;13.38;6.70;;;;;;;1.04;63.07;99704.22;1759628;81;21339;-62
2022/01/21 07:41:26;;;;;;;16.25;8.68;;;;;;;0.91;63.25;99708.95;1831501;78;21331;-64
2022/01/21 07:44:34;;;;;;;14.83;7.30;;;;;;;0.80;63.54;99714.41;1756021;81;21301;-62
2022/01/21 07:47:43;;;;;;;13.70;6.70;;;;;;;0.68;63.75;99706.00;1759837;81;21884;-64
2022/01/21 07:50:49;;;;;;;12.55;6.87;;;;;;;0.59;63.94;99716.70;1798972;78;21422;-62
2022/01/21 07:53:54;;;;;;;12.68;7.58;;;;;;;0.48;64.13;99710.88;1804121;79;21225;-65
2022/01/21 07:57:02;;;;;;;15.28;7.30;;;;;;;0.47;64.24;99716.39;1745994;81;21236;-62
2022/01/21 08:00:07;;;;;;;13.13;6.97;;;;;;;0.45;64.21;99727.78;1761981;81;21225;-63
2022/01/21 08:03:13;;;;;;;12.88;7.53;;;;;;;0.42;64.06;99722.17;1769203;80;21658;-62
2022/01/21 08:06:18;;;;;;;14.93;7.33;;;;;;;0.44;63.95;99727.42;1810625;78;21390;-65
2022/01/21 08:09:27;;;;;;;12.43;6.58;;;;;;;0.46;63.71;99727.65;1728038;81;21202;-62
2022/01/21 08:12:35;;;;;;;11.80;6.25;;;;;;;0.48;63.29;99735.11;1760107;80;21356;-62
2022/01/21 08:15:44;;;;;;;14.98;7.33;;;;;;;0.46;63.05;99738.42;1740985;82;21741;-63
2022/01/21 08:18:50;;;;;;;11.78;6.35;;;;;;;0.44;62.85;99733.67;1740667;82;21232;-62
2022/01/21 08:21:55;;;;;;;12.55;6.10;;;;;;;0.42;62.76;99730.73;1740459;82;21309;-63
2022/01/21 08:25:03;;;;;;;11.65;6.17;;;;;;;0.44;62.47;99736.37;1757639;81;21359;-63
2022/01/21 08:28:11;;;;;;;11.95;5.85;;;;;;;0.43;62.22;99733.30;1810003;78;21229;-63
2022/01/21 08:31:19;;;;;;;11.83;7.00;;;;;;;0.39;62.21;99722.43;1802325;79;21335;-62
2022/01/21 08:34:29;;;;;;;10.95;6.30;;;;;;;0.38;62.12;99722.05;1797418;79;21515;-62
2022/01/21 08:37:44;;;;;;;14.55;7.28;;;;;;;0.38;61.96;99716.66;1730760;82;21205;-62
2022/01/21 08:40:52;;;;;;;14.43;6.10;;;;;;;0.45;61.92;99721.05;1798562;80;21267;-63
2022/01/21 08:43:56;;;;;;;20.20;10.10;;;;;;;0.47;61.60;99711.87;1705836;81;21225;-63
2022/01/21 08:47:07;;;;;;;15.68;7.60;;;;;;;0.44;61.35;99708.10;1759801;81;21236;-62
2022/01/21 08:50:13;;;;;;;14.43;6.75;;;;;;;0.42;61.33;99712.75;1748355;81;21236;-62
2022/01/21 08:53:41;;;;;;;9.70;5.08;;;;;;;0.45;61.07;99714.31;1720811;80;21331;-63
2022/01/21 08:56:49;;;;;;;15.85;6.08;;;;;;;0.43;60.71;99719.83;1738965;82;21259;-63
2022/01/21 08:59:54;;;;;;;15.05;5.72;;;;;;;0.38;60.88;99714.48;1804507;79;21350;-63
2022/01/21 09:03:02;;;;;;;11.73;5.70;;;;;;;0.39;60.67;99713.02;1794167;79;21339;-62
2022/01/21 09:06:16;;;;;;;15.03;8.00;;;;;;;0.37;60.64;99720.35;1775341;79;21887;-62
2022/01/21 09:09:22;;;;;;;11.15;6.58;;;;;;;0.34;60.74;99721.95;1793647;80;21425;-63
2022/01/21 09:12:28;;;;;;;11.08;6.70;;;;;;;0.33;60.83;99737.75;1764351;81;21212;-63
2022/01/21 09:15:36;;;;;;;10.35;6.35;;;;;;;0.35;60.94;99716.92;1768570;80;21410;-63
2022/01/21 09:18:48;;;;;;;10.03;6.10;;;;;;;0.40;60.93;99716.05;1772873;79;21220;-62
2022/01/21 09:21:56;;;;;;;10.10;5.85;;;;;;;0.47;60.88;99713.70;1803974;79;21338;-61
2022/01/21 09:25:03;;;;;;;13.53;7.53;;;;;;;0.48;60.75;99713.58;1792146;79;21531;-62
2022/01/21 09:28:13;;;;;;;7.25;5.25;;;;;;;0.52;60.80;99718.22;1790248;79;21215;-61
2022/01/21 09:31:23;;;;;;;10.63;5.75;;;;;;;0.60;60.77;99721.98;1791257;80;21160;-62
2022/01/21 09:34:31;;;;;;;13.58;5.92;;;;;;;0.64;60.74;99722.08;1796865;79;21251;-62
2022/01/21 09:37:37;;;;;;;12.50;5.92;;;;;;;0.64;60.39;99719.37;1766154;79;21285;-63
2022/01/21 09:40:50;;;;;;;14.65;6.78;;;;;;;0.64;60.50;99711.30;1775890;80;21157;-63
2022/01/21 09:43:58;;;;;;;10.88;5.55;;;;;;;0.69;60.53;99714.47;1787391;80;21246;-62
2022/01/21 09:47:04;;;;;;;12.07;5.90;;;;;;;0.77;60.43;99720.06;1771264;79;21262;-62
2022/01/21 09:50:10;;;;;;;12.45;6.12;;;;;;;0.84;60.42;99714.48;1788857;80;21173;-63
2022/01/21 09:53:20;;;;;;;13.00;6.20;;;;;;;0.88;60.15;99717.78;1797572;80;21184;-63
2022/01/21 09:56:25;;;;;;;14.20;6.55;;;;;;;0.80;59.95;99719.79;1812360;78;21194;-62
2022/01/21 09:59:32;;;;;;;7.47;5.47;;;;;;;0.77;59.98;99726.79;1797915;79;21733;-63
2022/01/21 10:02:41;;;;;;;9.78;5.80;;;;;;;0.82;60.11;99720.52;1797949;79;21706;-61
2022/01/21 10:05:51;;;;;;;8.60;5.47;;;;;;;0.88;59.85;99718.64;1798293;79;21699;-62
2022/01/21 10:09:00;;;;;;;10.48;6.22;;;;;;;0.93;59.95;99719.11;1801081;78;21193;-63
2022/01/21 10:12:10;;;;;;;11.60;5.62;;;;;;;1.04;59.60;99716.34;1797773;80;21231;-63
2022/01/21 10:15:17;;;;;;;13.05;6.85;;;;;;;1.09;59.45;99720.85;1795269;79;21456;-63
2022/01/21 10:18:28;;;;;;;9.90;6.08;;;;;;;1.12;59.31;99714.33;1796704;78;21196;-63
2022/01/21 10:21:42;;;;;;;10.85;5.95;;;;;;;1.17;59.15;99722.88;1797867;79;21535;-62
2022/01/21 10:25:12;;;;;;;16.32;10.00;;;;;;;1.19;58.88;99720.39;1797632;79;21216;-63
2022/01/21 10:28:21;;;;;;;9.93;5.80;;;;;;;1.25;58.87;99717.67;1802403;78;21719;-62
2022/01/21 10:31:33;;;;;;;12.07;5.58;;;;;;;1.30;58.61;99716.79;1797647;79;21318;-62
2022/01/21 10:34:48;;;;;;;10.38;5.25;;;;;;;1.34;58.53;99704.25;1808200;78;21398;-63
2022/01/21 10:38:00;;;;;;;11.63;5.35;;;;;;;1.38;58.30;99702.98;1801844;78;21756;-62
2022/01/21 10:41:21;;;;;;;14.47;7.17;;;;;;;1.39;58.20;99704.70;1802825;78;21360;-62
2022/01/21 10:44:31;;;;;;;8.83;5.40;;;;;;;1.42;58.21;99705.78;1795773;78;21415;-62
2022/01/21 10:47:47;;;;;;;13.45;5.72;;;;;;;1.49;58.16;99689.92;1798822;79;21193;-62
2022/01/21 10:50:53;;;;;;;12.35;5.67;;;;;;;1.57;58.03;99690.06;1780268;79;21417;-62
2022/01/21 10:54:04;;;;;;;11.40;5.85;;;;;;;1.61;57.94;99692.00;1789690;79;21343;-62
2022/01/21 10:57:28;;;;;;;8.48;5.25;;;;;;;1.68;57.69;99685.95;1740050;81;21355;-62
2022/01/21 11:00:35;;;;;;;14.03;6.33;;;;;;;1.66;57.36;99686.56;1765947;81;21415;-63
2022/01/21 11:03:43;;;;;;;7.62;5.35;;;;;;;1.65;57.38;99690.75;1734743;82;21897;-64
2022/01/21 11:07:00;;;;;;;10.72;5.22;;;;;;;1.64;57.38;99687.67;1799423;79;21378;-63
2022/01/21 11:10:09;;;;;;;10.23;5.80;;;;;;;1.69;57.38;99694.38;1803887;78;21829;-62
2022/01/21 11:13:25;;;;;;;12.58;5.75;;;;;;;1.80;57.39;99694.76;1783950;78;21699;-62
2022/01/21 11:16:33;;;;;;;8.68;5.40;;;;;;;1.85;57.03;99681.72;1799306;79;21350;-63
2022/01/21 11:19:40;;;;;;;11.97;5.70;;;;;;;1.86;56.92;99679.36;1798939;79;21257;-62
2022/01/21 11:23:05;;;;;;;8.40;5.75;;;;;;;1.89;56.67;99679.12;1797330;79;21694;-63
2022/01/21 11:26:14;;;;;;;11.18;5.92;;;;;;;1.85;56.67;99677.67;1800132;78;21312;-63
2022/01/21 11:29:20;;;;;;;9.48;5.75;;;;;;;2.03;56.95;99681.41;1801831;78;21766;-62
2022/01/21 11:32:28;;;;;;;9.70;5.90;;;;;;;2.09;56.60;99679.02;1799898;78;21695;-61
2022/01/21 11:35:39;;;;;;;10.23;5.25;;;;;;;2.12;56.26;99688.67;1798900;78;21200;-61
2022/01/21 11:38:53;;;;;;;11.50;6.92;;;;;;;2.08;56.12;99687.25;1801645;78;21161;-61
2022/01/21 11:41:57;;;;;;;8.85;5.47;;;;;;;2.03;56.18;99682.77;1805311;78;21877;-61
2022/01/21 11:45:19;;;;;;;11.00;5.60;;;;;;;2.06;56.35;99681.97;1800176;78;21212;-62
2022/01/21 11:51:46;;;;;;;12.88;6.45;;;;;;;2.14;55.87;99683.99;1733914;81;21210;-63
2022/01/21 11:54:56;;;;;;;14.87;6.78;;;;;;;2.02;55.89;99681.03;1803372;78;21335;-62
2022/01/21 11:58:27;;;;;;;12.93;6.57;;;;;;;1.99;56.04;99680.84;1730868;82;21354;-62
2022/01/21 12:01:49;;;;;;;14.45;6.50;;;;;;;2.00;56.18;99677.65;1710429;83;21309;-62
2022/01/21 12:05:17;;;;;;;15.68;6.30;;;;;;;1.93;56.15;99684.09;1705513;84;21718;-62
2022/01/21 12:08:22;;;;;;;13.70;6.40;;;;;;;1.84;56.49;99675.45;1708913;82;21371;-61
2022/01/21 12:11:40;;;;;;;12.50;6.10;;;;;;;1.90;56.59;99672.72;1717109;83;21197;-61
2022/01/21 12:15:00;;;;;;;14.78;6.05;;;;;;;1.90;56.56;99670.02;1709512;82;21349;-61
2022/01/21 12:18:01;;;;;;;11.97;5.97;;;;;;;1.81;56.44;99658.72;1732617;83;21256;-62
2022/01/21 12:21:31;;;;;;;10.18;5.62;;;;;;;1.79;56.56;99666.09;1724431;83;22010;-62
2022/01/21 12:25:02;;;;;;;15.95;5.97;;;;;;;1.80;56.56;99656.99;1728521;83;21288;-62
2022/01/21 12:28:26;;;;;;;12.13;6.17;;;;;;;1.73;56.66;99660.73;1764886;80;21422;-61
2022/01/21 12:32:39;;;;;;;10.93;6.00;;;;;;;1.75;56.91;99657.41;1762127;80;21699;-63
2022/01/21 12:35:17;;;;;;;10.60;4.97;;;;;;;1.71;56.99;99652.44;1750877;80;21741;-61
2022/01/21 12:41:47;;;;;;;9.88;5.92;;;;;;;1.95;57.12;99663.20;1761045;81;21343;-62
2022/01/21 12:44:48;;;;;;;10.68;5.70;;;;;;;2.03;56.88;99666.57;1763479;80;21221;-62
2022/01/21 12:47:55;;;;;;;12.05;6.50;;;;;;;2.03;56.79;99664.70;1766117;80;21402;-62
2022/01/21 12:51:07;;;;;;;9.83;5.53;;;;;;;2.09;56.64;99663.30;1754739;79;21260;-62
2022/01/21 12:57:40;;;;;;;14.55;6.60;;;;;;;2.29;56.36;99658.27;1792626;78;21201;-61
2022/01/21 13:00:49;;;;;;;10.45;5.70;;;;;;;2.34;56.05;99654.66;1820819;78;21190;-61
2022/01/21 13:04:13;;;;;;;12.93;6.58;;;;;;;2.37;55.91;99656.58;1773485;78;21228;-61
2022/01/21 13:07:39;;;;;;;8.83;5.85;;;;;;;2.33;55.77;99656.49;1804180;78;21264;-62
2022/01/21 13:10:48;;;;;;;12.35;5.83;;;;;;;2.31;55.92;99653.10;1821824;78;21738;-61
2022/01/21 13:13:59;;;;;;;12.98;5.85;;;;;;;2.33;55.85;99659.71;1796590;78;21185;-62
2022/01/21 13:17:16;;;;;;;13.45;7.03;;;;;;;2.18;55.70;99661.97;1763270;81;21241;-62
2022/01/21 13:20:24;;;;;;;12.55;6.30;;;;;;;1.95;56.05;99661.02;1779666;80;21272;-62
2022/01/21 13:23:59;;;;;;;13.70;6.45;;;;;;;1.75;56.45;99664.64;1789554;80;21205;-62
2022/01/21 13:27:00;;;;;;;15.50;7.47;;;;;;;1.52;56.72;99672.95;1773441;80;21177;-62
2022/01/21 13:30:11;;;;;;;15.30;7.40;;;;;;;1.31;57.35;99674.87;1794198;78;21849;-62
2022/01/21 13:33:18;;;;;;;11.63;6.20;;;;;;;1.28;57.88;99671.58;1809144;78;21614;-62
2022/01/21 13:36:49;;;;;;;11.88;6.78;;;;;;;1.34;58.14;99663.81;1786024;80;21316;-62
2022/01/21 13:39:55;;;;;;;11.28;6.05;;;;;;;1.35;58.28;99658.77;1786049;78;21307;-63
2022/01/21 13:43:23;;;;;;;10.18;5.95;;;;;;;1.34;58.40;99662.47;1766280;80;21188;-62
2022/01/21 13:46:29;;;;;;;10.10;5.62;;;;;;;1.23;58.51;99669.78;1767495;78;21212;-61
2022/01/21 13:49:35;;;;;;;16.30;7.10;;;;;;;1.09;58.78;99670.14;1791602;80;21213;-62
2022/01/21 13:52:53;;;;;;;21.55;8.38;;;;;;;0.97;59.15;99677.44;1789095;80;21185;-64
2022/01/21 13:56:01;;;;;;;11.48;6.72;;;;;;;0.87;59.55;99676.51;1788454;80;21543;-61
2022/01/21 13:59:07;;;;;;;13.30;5.95;;;;;;;0.77;59.92;99674.27;1774915;80;21196;-63
2022/01/21 14:02:16;;;;;;;12.80;6.50;;;;;;;0.67;60.23;99681.41;1773208;80;21675;-63
2022/01/21 14:05:22;;;;;;;15.40;8.03;;;;;;;0.59;60.53;99690.64;1771196;80;21204;-63
2022/01/21 14:08:33;;;;;;;17.35;9.03;;;;;;;0.49;60.85;99685.66;1770307;80;22224;-63
2022/01/21 14:11:46;;;;;;;14.63;7.37;;;;;;;0.46;61.21;99687.27;1740842;81;21544;-63
2022/01/21 14:14:49;;;;;;;12.78;6.92;;;;;;;0.42;61.37;99679.10;1757368;81;21206;-63
2022/01/21 14:17:55;;;;;;;13.90;7.62;;;;;;;0.38;61.54;99687.57;1764935;80;21186;-63
2022/01/21 14:21:13;;;;;;;10.28;5.78;;;;;;;0.35;61.81;99677.89;1768565;80;21185;-63
2022/01/21 14:24:28;;;;;;;13.05;5.95;;;;;;;0.36;61.98;99683.66;1768747;80;21212;-62
2022/01/21 14:27:37;;;;;;;9.90;5.97;;;;;;;0.41;62.05;99684.62;1768910;81;21181;-62
2022/01/21 14:30:48;;;;;;;11.22;6.10;;;;;;;0.44;62.05;99683.01;1763354;80;22978;-63
2022/01/21 14:33:56;;;;;;;10.00;6.12;;;;;;;0.44;61.95;99685.22;1761195;81;21356;-63
2022/01/21 14:37:16;;;;;;;15.08;7.47;;;;;;;0.41;62.03;99682.79;1759875;81;21202;-63
2022/01/21 14:40:24;;;;;;;12.35;6.58;;;;;;;0.44;62.21;99695.98;1766142;80;21178;-63
2022/01/21 14:43:32;;;;;;;14.73;7.15;;;;;;;0.45;62.24;99688.27;1787144;80;21255;-62
2022/01/21 14:46:39;;;;;;;16.67;6.95;;;;;;;0.44;62.12;99681.66;1792439;80;21239;-63
2022/01/21 14:49:47;;;;;;;14.00;6.80;;;;;;;0.47;62.11;99691.69;1792907;80;21284;-63
2022/01/21 14:53:04;;;;;;;16.97;9.23;;;;;;;0.48;62.01;99688.00;1793063;80;21406;-63
2022/01/21 14:56:11;;;;;;;13.78;7.75;;;;;;;0.48;62.06;99691.17;1792837;80;21212;-62
2022/01/21 14:59:22;;;;;;;13.95;7.40;;;;;;;0.48;62.03;99697.42;1779147;78;21350;-63
2022/01/21 15:02:43;;;;;;;12.18;6.78;;;;;;;0.47;61.96;99697.08;1760492;80;21355;-63
2022/01/21 15:05:57;;;;;;;16.27;7.55;;;;;;;0.45;62.08;99702.20;1766012;81;21327;-63
2022/01/21 15:09:06;;;;;;;14.93;7.90;;;;;;;0.44;62.12;99700.51;1760426;81;21845;-63
2022/01/21 15:14:24;;;;;;;14.00;7.15;;;;;;;0.41;62.05;99692.69;1755670;81;21837;-63
2022/01/21 15:15:22;;;;;;;20.72;9.90;;;;;;;0.41;62.23;99694.04;1739525;81;21922;-63
2022/01/21 15:18:27;;;;;;;17.20;8.30;;;;;;;0.43;62.40;99688.87;1735000;82;21220;-63
2022/01/21 15:21:35;;;;;;;12.85;7.37;;;;;;;0.44;62.34;99689.74;1729138;81;21542;-62
2022/01/21 15:24:45;;;;;;;14.13;6.28;;;;;;;0.42;62.14;99684.97;1740183;81;21533;-64
2022/01/21 15:27:51;;;;;;;12.88;6.20;;;;;;;0.35;61.96;99685.97;1733743;82;21241;-62
2022/01/21 15:30:58;;;;;;;14.13;5.95;;;;;;;0.32;61.99;99677.33;1733472;82;21206;-63
2022/01/21 15:34:05;;;;;;;10.38;5.15;;;;;;;0.31;61.83;99691.74;1747165;81;22098;-63
2022/01/21 15:37:14;;;;;;;12.23;5.47;;;;;;;0.26;61.61;99685.89;1734566;81;21199;-62
2022/01/21 15:40:24;;;;;;;10.75;6.05;;;;;;;0.24;61.63;99696.78;1759024;81;21216;-62
2022/01/21 15:43:33;;;;;;;11.28;5.60;;;;;;;0.22;61.68;99694.73;1728455;83;21731;-63
2022/01/21 15:46:39;;;;;;;11.05;5.90;;;;;;;0.20;61.69;99685.92;1735096;81;21218;-63